sensor_id;sensor_type;location;lat;lon;timestamp;P1;durP1;ratioP1;P2;durP2;ratioP2
73168;SDS011;61379;59.732;30.468;2022-10-31T00:01:15;6.57;;;5.72;;
73168;SDS011;61379;59.732;30.468;2022-10-31T00:03:42;6.60;;;6.20;;
73168;SDS011;61379;59.732;30.468;2022-10-31T00:06:08;6.50;;;6.10;;
73168;SDS011;61379;59.732;30.468;2022-10-31T00:08:35;6.72;;;6.32;;
73168;SDS011;61379;59.732;30.468;2022-10-31T00:11:02;6.50;;;6.10;;
73168;SDS011;61379;59.732;30.468;2022-10-31T00:13:29;6.65;;;5.80;;
73168;SDS011;61379;59.732;30.468;2022-10-31T00:15:57;6.22;;;5.75;;
73168;SDS011;61379;59.732;30.468;2022-10-31T00:18:23;6.60;;;6.00;;
73168;SDS011;61379;59.732;30.468;2022-10-31T00:20:57;6.63;;;5.88;;
73168;SDS011;61379;59.732;30.468;2022-10-31T00:23:24;7.70;;;6.18;;
73168;SDS011;61379;59.732;30.468;2022-10-31T00:25:51;5.88;;;5.47;;
73168;SDS011;61379;59.732;30.468;2022-10-31T00:28:17;6.15;;;5.75;;
73168;SDS011;61379;59.732;30.468;2022-10-31T00:30:44;6.10;;;5.70;;
73168;SDS011;61379;59.732;30.468;2022-10-31T00:33:12;6.35;;;5.82;;
73168;SDS011;61379;59.732;30.468;2022-10-31T00:35:39;6.80;;;6.30;;
73168;SDS011;61379;59.732;30.468;2022-10-31T00:38:05;6.22;;;5.82;;
73168;SDS011;61379;59.732;30.468;2022-10-31T00:40:32;6.13;;;5.72;;
73168;SDS011;61379;59.732;30.468;2022-10-31T00:42:58;5.88;;;5.47;;
73168;SDS011;61379;59.732;30.468;2022-10-31T00:45:25;6.47;;;5.90;;
73168;SDS011;61379;59.732;30.468;2022-10-31T00:47:52;6.53;;;6.13;;
73168;SDS011;61379;59.732;30.468;2022-10-31T00:50:20;6.47;;;6.07;;
73168;SDS011;61379;59.732;30.468;2022-10-31T00:52:46;6.07;;;5.68;;
73168;SDS011;61379;59.732;30.468;2022-10-31T00:55:13;6.85;;;6.35;;
73168;SDS011;61379;59.732;30.468;2022-10-31T00:57:40;6.28;;;5.88;;
73168;SDS011;61379;59.732;30.468;2022-10-31T01:00:07;6.10;;;5.50;;
73168;SDS011;61379;59.732;30.468;2022-10-31T01:02:34;6.15;;;5.75;;
73168;SDS011;61379;59.732;30.468;2022-10-31T01:05:00;6.57;;;6.18;;
73168;SDS011;61379;59.732;30.468;2022-10-31T01:07:29;7.03;;;6.43;;
73168;SDS011;61379;59.732;30.468;2022-10-31T01:09:56;6.78;;;6.30;;
73168;SDS011;61379;59.732;30.468;2022-10-31T01:12:23;6.32;;;5.88;;
73168;SDS011;61379;59.732;30.468;2022-10-31T01:14:49;6.53;;;6.13;;
73168;SDS011;61379;59.732;30.468;2022-10-31T01:17:16;7.07;;;5.88;;
73168;SDS011;61379;59.732;30.468;2022-10-31T01:19:43;5.90;;;5.50;;
73168;SDS011;61379;59.732;30.468;2022-10-31T01:22:09;6.13;;;5.43;;
73168;SDS011;61379;59.732;30.468;2022-10-31T01:24:37;5.70;;;5.30;;
73168;SDS011;61379;59.732;30.468;2022-10-31T01:27:04;7.18;;;5.80;;
73168;SDS011;61379;59.732;30.468;2022-10-31T01:29:31;6.00;;;5.50;;
73168;SDS011;61379;59.732;30.468;2022-10-31T01:31:57;6.50;;;5.82;;
73168;SDS011;61379;59.732;30.468;2022-10-31T01:34:24;8.43;;;6.20;;
73168;SDS011;61379;59.732;30.468;2022-10-31T01:36:50;6.28;;;5.68;;
73168;SDS011;61379;59.732;30.468;2022-10-31T01:39:17;5.90;;;5.43;;
73168;SDS011;61379;59.732;30.468;2022-10-31T01:41:46;5.88;;;5.20;;
73168;SDS011;61379;59.732;30.468;2022-10-31T01:46:59;6.03;;;5.53;;
73168;SDS011;61379;59.732;30.468;2022-10-31T01:49:35;5.68;;;5.28;;
73168;SDS011;61379;59.732;30.468;2022-10-31T01:52:03;5.63;;;5.22;;
73168;SDS011;61379;59.732;30.468;2022-10-31T01:54:31;6.18;;;5.57;;
73168;SDS011;61379;59.732;30.468;2022-10-31T01:57:01;6.38;;;5.78;;
73168;SDS011;61379;59.732;30.468;2022-10-31T01:59:29;5.72;;;5.32;;
73168;SDS011;61379;59.732;30.468;2022-10-31T02:01:56;6.18;;;5.78;;
73168;SDS011;61379;59.732;30.468;2022-10-31T02:04:24;5.90;;;5.50;;
73168;SDS011;61379;59.732;30.468;2022-10-31T02:06:53;6.90;;;6.25;;
73168;SDS011;61379;59.732;30.468;2022-10-31T02:09:22;6.50;;;5.97;;
73168;SDS011;61379;59.732;30.468;2022-10-31T02:11:49;6.45;;;5.88;;
73168;SDS011;61379;59.732;30.468;2022-10-31T02:14:17;6.53;;;6.03;;
73168;SDS011;61379;59.732;30.468;2022-10-31T02:16:44;6.53;;;6.03;;
73168;SDS011;61379;59.732;30.468;2022-10-31T02:19:11;6.55;;;6.00;;
73168;SDS011;61379;59.732;30.468;2022-10-31T02:21:41;5.57;;;5.07;;
73168;SDS011;61379;59.732;30.468;2022-10-31T02:24:28;5.72;;;5.32;;
73168;SDS011;61379;59.732;30.468;2022-10-31T02:27:12;6.10;;;5.60;;
73168;SDS011;61379;59.732;30.468;2022-10-31T02:32:34;6.40;;;5.88;;
73168;SDS011;61379;59.732;30.468;2022-10-31T02:35:05;6.35;;;5.95;;
73168;SDS011;61379;59.732;30.468;2022-10-31T02:37:36;6.38;;;5.88;;
73168;SDS011;61379;59.732;30.468;2022-10-31T02:40:04;6.13;;;5.63;;
73168;SDS011;61379;59.732;30.468;2022-10-31T02:42:33;6.10;;;5.60;;
73168;SDS011;61379;59.732;30.468;2022-10-31T02:45:04;5.57;;;5.18;;
73168;SDS011;61379;59.732;30.468;2022-10-31T02:47:36;6.90;;;6.32;;
73168;SDS011;61379;59.732;30.468;2022-10-31T02:50:04;7.90;;;5.60;;
73168;SDS011;61379;59.732;30.468;2022-10-31T02:52:33;6.53;;;5.95;;
73168;SDS011;61379;59.732;30.468;2022-10-31T02:55:08;6.20;;;5.70;;
73168;SDS011;61379;59.732;30.468;2022-10-31T02:57:35;6.30;;;5.80;;
73168;SDS011;61379;59.732;30.468;2022-10-31T03:00:04;6.68;;;6.18;;
73168;SDS011;61379;59.732;30.468;2022-10-31T03:02:35;6.72;;;6.00;;
73168;SDS011;61379;59.732;30.468;2022-10-31T03:05:11;5.80;;;5.40;;
73168;SDS011;61379;59.732;30.468;2022-10-31T03:07:42;6.85;;;6.35;;
73168;SDS011;61379;59.732;30.468;2022-10-31T03:10:13;6.10;;;5.57;;
73168;SDS011;61379;59.732;30.468;2022-10-31T03:12:44;7.00;;;6.50;;
73168;SDS011;61379;59.732;30.468;2022-10-31T03:15:17;6.30;;;5.90;;
73168;SDS011;61379;59.732;30.468;2022-10-31T03:17:49;6.68;;;6.18;;
73168;SDS011;61379;59.732;30.468;2022-10-31T03:20:16;6.43;;;5.93;;
73168;SDS011;61379;59.732;30.468;2022-10-31T03:22:47;6.30;;;5.80;;
73168;SDS011;61379;59.732;30.468;2022-10-31T03:25:14;6.78;;;6.18;;
73168;SDS011;61379;59.732;30.468;2022-10-31T03:27:40;6.00;;;5.60;;
73168;SDS011;61379;59.732;30.468;2022-10-31T03:30:08;6.20;;;5.68;;
73168;SDS011;61379;59.732;30.468;2022-10-31T03:32:36;6.75;;;6.25;;
73168;SDS011;61379;59.732;30.468;2022-10-31T03:35:05;6.10;;;5.60;;
73168;SDS011;61379;59.732;30.468;2022-10-31T03:37:34;6.32;;;5.90;;
73168;SDS011;61379;59.732;30.468;2022-10-31T03:40:02;6.47;;;6.07;;
73168;SDS011;61379;59.732;30.468;2022-10-31T03:42:31;6.38;;;5.97;;
73168;SDS011;61379;59.732;30.468;2022-10-31T03:45:00;6.40;;;5.88;;
73168;SDS011;61379;59.732;30.468;2022-10-31T03:47:29;6.65;;;6.25;;
73168;SDS011;61379;59.732;30.468;2022-10-31T03:49:56;6.65;;;6.20;;
73168;SDS011;61379;59.732;30.468;2022-10-31T03:52:24;7.00;;;6.60;;
73168;SDS011;61379;59.732;30.468;2022-10-31T03:54:54;6.60;;;6.13;;
73168;SDS011;61379;59.732;30.468;2022-10-31T03:57:23;6.88;;;6.43;;
73168;SDS011;61379;59.732;30.468;2022-10-31T03:59:51;6.95;;;6.45;;
73168;SDS011;61379;59.732;30.468;2022-10-31T04:02:20;6.82;;;6.40;;
73168;SDS011;61379;59.732;30.468;2022-10-31T04:04:48;6.80;;;6.30;;
73168;SDS011;61379;59.732;30.468;2022-10-31T04:07:15;7.03;;;6.63;;
73168;SDS011;61379;59.732;30.468;2022-10-31T04:09:44;7.30;;;6.80;;
73168;SDS011;61379;59.732;30.468;2022-10-31T04:12:12;14.25;;;7.35;;
73168;SDS011;61379;59.732;30.468;2022-10-31T04:14:40;8.63;;;7.93;;
73168;SDS011;61379;59.732;30.468;2022-10-31T04:17:09;6.88;;;6.38;;
73168;SDS011;61379;59.732;30.468;2022-10-31T04:19:36;6.63;;;6.13;;
73168;SDS011;61379;59.732;30.468;2022-10-31T04:22:02;7.30;;;6.80;;
73168;SDS011;61379;59.732;30.468;2022-10-31T04:24:29;7.60;;;6.82;;
73168;SDS011;61379;59.732;30.468;2022-10-31T04:26:57;6.57;;;6.13;;
73168;SDS011;61379;59.732;30.468;2022-10-31T04:29:24;6.85;;;6.25;;
73168;SDS011;61379;59.732;30.468;2022-10-31T04:31:50;6.93;;;6.43;;
73168;SDS011;61379;59.732;30.468;2022-10-31T04:34:17;7.07;;;6.47;;
73168;SDS011;61379;59.732;30.468;2022-10-31T04:36:43;5.65;;;5.25;;
73168;SDS011;61379;59.732;30.468;2022-10-31T04:39:10;7.15;;;6.72;;
73168;SDS011;61379;59.732;30.468;2022-10-31T04:41:37;6.40;;;5.82;;
73168;SDS011;61379;59.732;30.468;2022-10-31T04:44:05;6.78;;;6.10;;
73168;SDS011;61379;59.732;30.468;2022-10-31T04:46:31;6.65;;;6.07;;
73168;SDS011;61379;59.732;30.468;2022-10-31T04:48:58;7.65;;;6.68;;
73168;SDS011;61379;59.732;30.468;2022-10-31T04:51:25;6.20;;;5.80;;
73168;SDS011;61379;59.732;30.468;2022-10-31T04:53:51;8.23;;;6.93;;
73168;SDS011;61379;59.732;30.468;2022-10-31T04:56:18;6.75;;;6.25;;
73168;SDS011;61379;59.732;30.468;2022-10-31T04:58:45;6.50;;;6.10;;
73168;SDS011;61379;59.732;30.468;2022-10-31T05:01:13;6.40;;;6.00;;
73168;SDS011;61379;59.732;30.468;2022-10-31T05:03:40;6.10;;;5.72;;
73168;SDS011;61379;59.732;30.468;2022-10-31T05:06:06;8.07;;;6.43;;
73168;SDS011;61379;59.732;30.468;2022-10-31T05:08:33;6.72;;;6.32;;
73168;SDS011;61379;59.732;30.468;2022-10-31T05:11:00;6.85;;;6.40;;
73168;SDS011;61379;59.732;30.468;2022-10-31T05:13:27;7.57;;;7.07;;
73168;SDS011;61379;59.732;30.468;2022-10-31T05:15:53;6.38;;;5.97;;
73168;SDS011;61379;59.732;30.468;2022-10-31T05:18:22;7.40;;;6.88;;
73168;SDS011;61379;59.732;30.468;2022-10-31T05:20:48;7.55;;;7.05;;
73168;SDS011;61379;59.732;30.468;2022-10-31T05:23:15;7.55;;;6.90;;
73168;SDS011;61379;59.732;30.468;2022-10-31T05:25:42;9.27;;;6.65;;
73168;SDS011;61379;59.732;30.468;2022-10-31T05:28:08;8.65;;;7.15;;
73168;SDS011;61379;59.732;30.468;2022-10-31T05:30:35;7.80;;;6.95;;
73168;SDS011;61379;59.732;30.468;2022-10-31T05:33:02;6.80;;;6.22;;
73168;SDS011;61379;59.732;30.468;2022-10-31T05:35:30;8.15;;;7.45;;
73168;SDS011;61379;59.732;30.468;2022-10-31T05:37:57;7.63;;;7.10;;
73168;SDS011;61379;59.732;30.468;2022-10-31T05:40:25;6.88;;;6.43;;
73168;SDS011;61379;59.732;30.468;2022-10-31T05:42:52;8.23;;;7.55;;
73168;SDS011;61379;59.732;30.468;2022-10-31T05:45:19;6.63;;;6.22;;
73168;SDS011;61379;59.732;30.468;2022-10-31T05:47:55;7.25;;;6.75;;
73168;SDS011;61379;59.732;30.468;2022-10-31T05:50:22;7.25;;;6.53;;
73168;SDS011;61379;59.732;30.468;2022-10-31T05:52:55;7.22;;;6.75;;
73168;SDS011;61379;59.732;30.468;2022-10-31T05:55:22;8.75;;;7.43;;
73168;SDS011;61379;59.732;30.468;2022-10-31T05:57:48;7.20;;;6.70;;
73168;SDS011;61379;59.732;30.468;2022-10-31T06:00:16;6.97;;;6.45;;
73168;SDS011;61379;59.732;30.468;2022-10-31T06:02:43;6.45;;;6.05;;
73168;SDS011;61379;59.732;30.468;2022-10-31T06:05:10;6.28;;;5.75;;
73168;SDS011;61379;59.732;30.468;2022-10-31T06:07:37;7.07;;;6.55;;
73168;SDS011;61379;59.732;30.468;2022-10-31T06:10:06;6.78;;;6.28;;
73168;SDS011;61379;59.732;30.468;2022-10-31T06:12:33;7.35;;;6.85;;
73168;SDS011;61379;59.732;30.468;2022-10-31T06:15:03;9.07;;;6.45;;
73168;SDS011;61379;59.732;30.468;2022-10-31T06:17:31;7.82;;;7.13;;
73168;SDS011;61379;59.732;30.468;2022-10-31T06:19:57;7.57;;;7.00;;
73168;SDS011;61379;59.732;30.468;2022-10-31T06:22:24;8.52;;;6.53;;
73168;SDS011;61379;59.732;30.468;2022-10-31T06:24:51;6.60;;;6.10;;
73168;SDS011;61379;59.732;30.468;2022-10-31T06:27:19;9.02;;;6.85;;
73168;SDS011;61379;59.732;30.468;2022-10-31T06:29:45;8.20;;;7.50;;
73168;SDS011;61379;59.732;30.468;2022-10-31T06:32:12;7.97;;;6.93;;
73168;SDS011;61379;59.732;30.468;2022-10-31T06:34:39;7.55;;;7.05;;
73168;SDS011;61379;59.732;30.468;2022-10-31T06:37:06;7.28;;;6.60;;
73168;SDS011;61379;59.732;30.468;2022-10-31T06:39:33;7.47;;;6.88;;
73168;SDS011;61379;59.732;30.468;2022-10-31T06:41:59;7.38;;;6.88;;
73168;SDS011;61379;59.732;30.468;2022-10-31T06:44:27;6.88;;;5.75;;
73168;SDS011;61379;59.732;30.468;2022-10-31T06:46:54;6.72;;;6.28;;
73168;SDS011;61379;59.732;30.468;2022-10-31T06:49:21;6.78;;;6.28;;
73168;SDS011;61379;59.732;30.468;2022-10-31T06:51:48;7.07;;;6.45;;
73168;SDS011;61379;59.732;30.468;2022-10-31T06:54:15;7.47;;;5.93;;
73168;SDS011;61379;59.732;30.468;2022-10-31T06:56:42;6.00;;;5.60;;
73168;SDS011;61379;59.732;30.468;2022-10-31T06:59:09;7.30;;;6.10;;
73168;SDS011;61379;59.732;30.468;2022-10-31T07:01:37;6.50;;;6.10;;
73168;SDS011;61379;59.732;30.468;2022-10-31T07:04:03;7.43;;;6.00;;
73168;SDS011;61379;59.732;30.468;2022-10-31T07:06:30;5.90;;;5.38;;
73168;SDS011;61379;59.732;30.468;2022-10-31T07:08:57;6.38;;;5.88;;
73168;SDS011;61379;59.732;30.468;2022-10-31T07:11:23;5.93;;;5.32;;
73168;SDS011;61379;59.732;30.468;2022-10-31T07:13:50;7.30;;;6.72;;
73168;SDS011;61379;59.732;30.468;2022-10-31T07:16:17;7.55;;;6.85;;
73168;SDS011;61379;59.732;30.468;2022-10-31T07:18:45;7.47;;;6.80;;
73168;SDS011;61379;59.732;30.468;2022-10-31T07:21:11;9.90;;;7.35;;
73168;SDS011;61379;59.732;30.468;2022-10-31T07:23:38;9.07;;;5.45;;
73168;SDS011;61379;59.732;30.468;2022-10-31T07:26:05;5.88;;;5.38;;
73168;SDS011;61379;59.732;30.468;2022-10-31T07:28:31;5.82;;;5.22;;
73168;SDS011;61379;59.732;30.468;2022-10-31T07:30:58;7.75;;;5.40;;
73168;SDS011;61379;59.732;30.468;2022-10-31T07:33:25;5.90;;;5.50;;
73168;SDS011;61379;59.732;30.468;2022-10-31T07:35:54;6.25;;;5.45;;
73168;SDS011;61379;59.732;30.468;2022-10-31T07:38:20;6.72;;;6.15;;
73168;SDS011;61379;59.732;30.468;2022-10-31T07:40:49;7.93;;;6.15;;
73168;SDS011;61379;59.732;30.468;2022-10-31T07:43:16;6.03;;;5.45;;
73168;SDS011;61379;59.732;30.468;2022-10-31T07:45:43;6.13;;;5.28;;
73168;SDS011;61379;59.732;30.468;2022-10-31T07:48:09;6.45;;;4.82;;
73168;SDS011;61379;59.732;30.468;2022-10-31T07:50:36;6.28;;;5.32;;
73168;SDS011;61379;59.732;30.468;2022-10-31T07:53:06;5.78;;;5.22;;
73168;SDS011;61379;59.732;30.468;2022-10-31T07:55:33;5.40;;;4.90;;
73168;SDS011;61379;59.732;30.468;2022-10-31T07:58:00;6.38;;;5.88;;
73168;SDS011;61379;59.732;30.468;2022-10-31T08:00:27;5.93;;;5.53;;
73168;SDS011;61379;59.732;30.468;2022-10-31T08:02:57;5.80;;;5.18;;
73168;SDS011;61379;59.732;30.468;2022-10-31T08:05:24;5.57;;;5.07;;
73168;SDS011;61379;59.732;30.468;2022-10-31T08:07:51;5.30;;;5.00;;
73168;SDS011;61379;59.732;30.468;2022-10-31T08:10:19;6.72;;;6.05;;
73168;SDS011;61379;59.732;30.468;2022-10-31T08:12:46;8.45;;;6.35;;
73168;SDS011;61379;59.732;30.468;2022-10-31T08:15:13;6.00;;;5.38;;
73168;SDS011;61379;59.732;30.468;2022-10-31T08:17:39;6.18;;;5.68;;
73168;SDS011;61379;59.732;30.468;2022-10-31T08:20:06;6.28;;;5.82;;
73168;SDS011;61379;59.732;30.468;2022-10-31T08:22:33;9.07;;;5.30;;
73168;SDS011;61379;59.732;30.468;2022-10-31T08:25:00;5.93;;;5.32;;
73168;SDS011;61379;59.732;30.468;2022-10-31T08:27:30;17.92;;;9.20;;
73168;SDS011;61379;59.732;30.468;2022-10-31T08:29:57;7.20;;;6.13;;
73168;SDS011;61379;59.732;30.468;2022-10-31T08:32:24;6.85;;;6.05;;
73168;SDS011;61379;59.732;30.468;2022-10-31T08:34:50;6.53;;;5.93;;
73168;SDS011;61379;59.732;30.468;2022-10-31T08:37:17;6.00;;;5.60;;
73168;SDS011;61379;59.732;30.468;2022-10-31T08:39:45;5.90;;;5.50;;
73168;SDS011;61379;59.732;30.468;2022-10-31T08:42:12;6.50;;;6.00;;
73168;SDS011;61379;59.732;30.468;2022-10-31T08:44:40;6.40;;;5.80;;
73168;SDS011;61379;59.732;30.468;2022-10-31T08:47:07;5.57;;;5.07;;
73168;SDS011;61379;59.732;30.468;2022-10-31T08:49:33;6.00;;;5.60;;
73168;SDS011;61379;59.732;30.468;2022-10-31T08:52:00;6.72;;;6.15;;
73168;SDS011;61379;59.732;30.468;2022-10-31T08:54:27;6.40;;;6.00;;
73168;SDS011;61379;59.732;30.468;2022-10-31T08:56:54;7.05;;;6.55;;
73168;SDS011;61379;59.732;30.468;2022-10-31T08:59:21;6.85;;;6.20;;
73168;SDS011;61379;59.732;30.468;2022-10-31T09:01:49;6.60;;;6.10;;
73168;SDS011;61379;59.732;30.468;2022-10-31T09:04:16;6.90;;;5.85;;
73168;SDS011;61379;59.732;30.468;2022-10-31T09:06:42;6.10;;;5.60;;
73168;SDS011;61379;59.732;30.468;2022-10-31T09:09:09;6.50;;;5.90;;
73168;SDS011;61379;59.732;30.468;2022-10-31T09:11:35;6.63;;;5.70;;
73168;SDS011;61379;59.732;30.468;2022-10-31T09:14:02;5.97;;;5.45;;
73168;SDS011;61379;59.732;30.468;2022-10-31T09:16:29;5.95;;;5.55;;
73168;SDS011;61379;59.732;30.468;2022-10-31T09:18:57;8.13;;;5.75;;
73168;SDS011;61379;59.732;30.468;2022-10-31T09:21:23;7.10;;;6.25;;
73168;SDS011;61379;59.732;30.468;2022-10-31T09:23:50;7.63;;;6.97;;
73168;SDS011;61379;59.732;30.468;2022-10-31T09:26:19;6.78;;;6.10;;
73168;SDS011;61379;59.732;30.468;2022-10-31T09:28:45;7.95;;;7.35;;
73168;SDS011;61379;59.732;30.468;2022-10-31T09:31:12;6.80;;;6.13;;
73168;SDS011;61379;59.732;30.468;2022-10-31T09:33:39;7.07;;;6.38;;
73168;SDS011;61379;59.732;30.468;2022-10-31T09:36:08;6.28;;;5.72;;
73168;SDS011;61379;59.732;30.468;2022-10-31T09:38:35;5.85;;;5.45;;
73168;SDS011;61379;59.732;30.468;2022-10-31T09:41:04;6.53;;;6.05;;
73168;SDS011;61379;59.732;30.468;2022-10-31T09:43:35;6.65;;;6.15;;
73168;SDS011;61379;59.732;30.468;2022-10-31T09:46:07;6.50;;;6.00;;
73168;SDS011;61379;59.732;30.468;2022-10-31T09:48:42;8.18;;;6.00;;
73168;SDS011;61379;59.732;30.468;2022-10-31T09:51:12;7.05;;;5.88;;
73168;SDS011;61379;59.732;30.468;2022-10-31T09:53:42;7.13;;;6.47;;
73168;SDS011;61379;59.732;30.468;2022-10-31T09:56:11;7.10;;;5.72;;
73168;SDS011;61379;59.732;30.468;2022-10-31T09:58:40;8.73;;;7.82;;
73168;SDS011;61379;59.732;30.468;2022-10-31T10:01:09;7.82;;;7.22;;
73168;SDS011;61379;59.732;30.468;2022-10-31T10:03:41;6.65;;;6.25;;
73168;SDS011;61379;59.732;30.468;2022-10-31T10:08:37;7.50;;;6.88;;
73168;SDS011;61379;59.732;30.468;2022-10-31T10:11:08;7.88;;;7.38;;
73168;SDS011;61379;59.732;30.468;2022-10-31T10:13:43;7.68;;;7.00;;
73168;SDS011;61379;59.732;30.468;2022-10-31T10:16:15;6.47;;;5.88;;
73168;SDS011;61379;59.732;30.468;2022-10-31T10:18:49;6.78;;;5.60;;
73168;SDS011;61379;59.732;30.468;2022-10-31T10:21:22;6.10;;;5.60;;
73168;SDS011;61379;59.732;30.468;2022-10-31T10:24:00;6.22;;;5.70;;
73168;SDS011;61379;59.732;30.468;2022-10-31T10:26:30;6.40;;;6.00;;
73168;SDS011;61379;59.732;30.468;2022-10-31T10:29:01;6.28;;;5.70;;
73168;SDS011;61379;59.732;30.468;2022-10-31T10:31:28;6.18;;;5.78;;
73168;SDS011;61379;59.732;30.468;2022-10-31T10:33:59;6.43;;;6.03;;
73168;SDS011;61379;59.732;30.468;2022-10-31T10:36:27;6.53;;;6.03;;
73168;SDS011;61379;59.732;30.468;2022-10-31T10:38:57;6.07;;;5.57;;
73168;SDS011;61379;59.732;30.468;2022-10-31T10:41:28;6.30;;;5.90;;
73168;SDS011;61379;59.732;30.468;2022-10-31T10:43:55;9.95;;;9.05;;
73168;SDS011;61379;59.732;30.468;2022-10-31T10:46:23;8.90;;;8.23;;
73168;SDS011;61379;59.732;30.468;2022-10-31T10:51:37;8.05;;;6.15;;
73168;SDS011;61379;59.732;30.468;2022-10-31T10:54:13;6.65;;;6.15;;
73168;SDS011;61379;59.732;30.468;2022-10-31T10:56:47;6.50;;;5.90;;
73168;SDS011;61379;59.732;30.468;2022-10-31T10:59:18;6.07;;;5.68;;
73168;SDS011;61379;59.732;30.468;2022-10-31T11:01:46;5.43;;;4.88;;
73168;SDS011;61379;59.732;30.468;2022-10-31T11:04:28;6.45;;;5.55;;
73168;SDS011;61379;59.732;30.468;2022-10-31T11:06:59;6.43;;;5.82;;
73168;SDS011;61379;59.732;30.468;2022-10-31T11:09:26;6.20;;;5.70;;
73168;SDS011;61379;59.732;30.468;2022-10-31T11:11:55;6.38;;;5.78;;
73168;SDS011;61379;59.732;30.468;2022-10-31T11:14:22;5.78;;;4.93;;
73168;SDS011;61379;59.732;30.468;2022-10-31T11:16:49;5.93;;;5.43;;
73168;SDS011;61379;59.732;30.468;2022-10-31T11:19:20;5.63;;;5.13;;
73168;SDS011;61379;59.732;30.468;2022-10-31T11:21:47;6.55;;;5.05;;
73168;SDS011;61379;59.732;30.468;2022-10-31T11:24:16;9.48;;;5.25;;
73168;SDS011;61379;59.732;30.468;2022-10-31T11:26:43;5.80;;;5.30;;
73168;SDS011;61379;59.732;30.468;2022-10-31T11:29:15;5.78;;;5.28;;
73168;SDS011;61379;59.732;30.468;2022-10-31T11:31:43;6.95;;;5.05;;
73168;SDS011;61379;59.732;30.468;2022-10-31T11:34:13;6.57;;;5.50;;
73168;SDS011;61379;59.732;30.468;2022-10-31T11:36:42;5.95;;;5.45;;
73168;SDS011;61379;59.732;30.468;2022-10-31T11:39:13;5.88;;;5.38;;
73168;SDS011;61379;59.732;30.468;2022-10-31T11:41:41;5.82;;;5.32;;
73168;SDS011;61379;59.732;30.468;2022-10-31T11:44:11;6.50;;;4.53;;
73168;SDS011;61379;59.732;30.468;2022-10-31T11:46:41;8.68;;;5.68;;
73168;SDS011;61379;59.732;30.468;2022-10-31T11:49:12;7.05;;;6.38;;
73168;SDS011;61379;59.732;30.468;2022-10-31T11:51:39;5.57;;;5.03;;
73168;SDS011;61379;59.732;30.468;2022-10-31T11:54:14;5.15;;;4.70;;
73168;SDS011;61379;59.732;30.468;2022-10-31T11:56:44;5.55;;;5.05;;
73168;SDS011;61379;59.732;30.468;2022-10-31T11:59:18;5.90;;;4.95;;
73168;SDS011;61379;59.732;30.468;2022-10-31T12:01:50;5.85;;;4.72;;
73168;SDS011;61379;59.732;30.468;2022-10-31T12:04:17;5.55;;;4.47;;
73168;SDS011;61379;59.732;30.468;2022-10-31T12:06:44;5.20;;;4.70;;
73168;SDS011;61379;59.732;30.468;2022-10-31T12:09:19;4.70;;;4.30;;
73168;SDS011;61379;59.732;30.468;2022-10-31T12:11:50;6.38;;;5.03;;
73168;SDS011;61379;59.732;30.468;2022-10-31T12:14:24;5.05;;;4.63;;
73168;SDS011;61379;59.732;30.468;2022-10-31T12:16:56;4.90;;;4.40;;
73168;SDS011;61379;59.732;30.468;2022-10-31T12:19:27;6.47;;;4.78;;
73168;SDS011;61379;59.732;30.468;2022-10-31T12:22:03;4.90;;;4.50;;
73168;SDS011;61379;59.732;30.468;2022-10-31T12:24:35;5.03;;;4.53;;
73168;SDS011;61379;59.732;30.468;2022-10-31T12:27:08;6.10;;;4.05;;
73168;SDS011;61379;59.732;30.468;2022-10-31T12:29:42;5.25;;;4.75;;
73168;SDS011;61379;59.732;30.468;2022-10-31T12:32:17;4.57;;;4.18;;
73168;SDS011;61379;59.732;30.468;2022-10-31T12:37:32;7.88;;;4.45;;
73168;SDS011;61379;59.732;30.468;2022-10-31T12:40:06;4.93;;;4.55;;
73168;SDS011;61379;59.732;30.468;2022-10-31T12:42:41;4.80;;;4.40;;
73168;SDS011;61379;59.732;30.468;2022-10-31T12:45:20;4.40;;;4.05;;
73168;SDS011;61379;59.732;30.468;2022-10-31T12:48:04;5.22;;;4.72;;
73168;SDS011;61379;59.732;30.468;2022-10-31T12:50:36;5.60;;;4.50;;
73168;SDS011;61379;59.732;30.468;2022-10-31T12:53:13;6.35;;;4.57;;
73168;SDS011;61379;59.732;30.468;2022-10-31T12:55:44;6.05;;;4.57;;
73168;SDS011;61379;59.732;30.468;2022-10-31T12:58:17;4.65;;;4.25;;
73168;SDS011;61379;59.732;30.468;2022-10-31T13:00:44;5.03;;;4.43;;
73168;SDS011;61379;59.732;30.468;2022-10-31T13:03:18;9.13;;;4.97;;
73168;SDS011;61379;59.732;30.468;2022-10-31T13:05:46;5.00;;;4.55;;
73168;SDS011;61379;59.732;30.468;2022-10-31T13:08:16;6.55;;;5.30;;
73168;SDS011;61379;59.732;30.468;2022-10-31T13:10:44;5.30;;;4.60;;
73168;SDS011;61379;59.732;30.468;2022-10-31T13:13:13;5.07;;;4.43;;
73168;SDS011;61379;59.732;30.468;2022-10-31T13:15:44;5.80;;;4.72;;
73168;SDS011;61379;59.732;30.468;2022-10-31T13:18:14;8.90;;;5.03;;
73168;SDS011;61379;59.732;30.468;2022-10-31T13:20:46;5.50;;;5.00;;
73168;SDS011;61379;59.732;30.468;2022-10-31T13:23:14;5.90;;;4.63;;
73168;SDS011;61379;59.732;30.468;2022-10-31T13:25:44;6.65;;;5.30;;
73168;SDS011;61379;59.732;30.468;2022-10-31T13:28:15;6.25;;;4.60;;
73168;SDS011;61379;59.732;30.468;2022-10-31T13:30:42;5.88;;;4.88;;
73168;SDS011;61379;59.732;30.468;2022-10-31T13:33:10;5.80;;;5.20;;
73168;SDS011;61379;59.732;30.468;2022-10-31T13:35:40;5.10;;;4.70;;
73168;SDS011;61379;59.732;30.468;2022-10-31T13:38:11;5.90;;;5.13;;
73168;SDS011;61379;59.732;30.468;2022-10-31T13:40:42;5.50;;;4.90;;
73168;SDS011;61379;59.732;30.468;2022-10-31T13:45:46;6.85;;;6.15;;
73168;SDS011;61379;59.732;30.468;2022-10-31T13:50:55;7.68;;;6.85;;
73168;SDS011;61379;59.732;30.468;2022-10-31T13:53:34;11.65;;;9.65;;
73168;SDS011;61379;59.732;30.468;2022-10-31T13:56:03;11.90;;;10.70;;
73168;SDS011;61379;59.732;30.468;2022-10-31T13:58:30;9.70;;;8.80;;
73168;SDS011;61379;59.732;30.468;2022-10-31T14:00:58;10.02;;;7.78;;
73168;SDS011;61379;59.732;30.468;2022-10-31T14:03:25;6.70;;;5.18;;
73168;SDS011;61379;59.732;30.468;2022-10-31T14:05:53;5.95;;;5.25;;
73168;SDS011;61379;59.732;30.468;2022-10-31T14:08:21;6.50;;;5.70;;
73168;SDS011;61379;59.732;30.468;2022-10-31T14:10:50;5.57;;;5.07;;
73168;SDS011;61379;59.732;30.468;2022-10-31T14:13:20;8.15;;;4.95;;
73168;SDS011;61379;59.732;30.468;2022-10-31T14:15:52;6.72;;;5.45;;
73168;SDS011;61379;59.732;30.468;2022-10-31T14:18:21;6.40;;;4.95;;
73168;SDS011;61379;59.732;30.468;2022-10-31T14:20:48;7.63;;;5.45;;
73168;SDS011;61379;59.732;30.468;2022-10-31T14:26:16;4.93;;;4.43;;
73168;SDS011;61379;59.732;30.468;2022-10-31T14:28:43;6.60;;;4.45;;
73168;SDS011;61379;59.732;30.468;2022-10-31T14:31:21;6.15;;;5.40;;
73168;SDS011;61379;59.732;30.468;2022-10-31T14:33:52;13.73;;;10.75;;
73168;SDS011;61379;59.732;30.468;2022-10-31T14:36:21;13.98;;;12.48;;
73168;SDS011;61379;59.732;30.468;2022-10-31T14:38:52;13.43;;;12.13;;
73168;SDS011;61379;59.732;30.468;2022-10-31T14:44:14;9.13;;;8.32;;
73168;SDS011;61379;59.732;30.468;2022-10-31T14:46:44;7.45;;;6.78;;
73168;SDS011;61379;59.732;30.468;2022-10-31T14:49:21;5.97;;;5.47;;
73168;SDS011;61379;59.732;30.468;2022-10-31T14:51:50;5.85;;;5.25;;
73168;SDS011;61379;59.732;30.468;2022-10-31T14:54:19;6.88;;;4.90;;
73168;SDS011;61379;59.732;30.468;2022-10-31T14:56:49;6.38;;;5.68;;
73168;SDS011;61379;59.732;30.468;2022-10-31T14:59:19;11.68;;;5.32;;
73168;SDS011;61379;59.732;30.468;2022-10-31T15:01:51;5.88;;;5.30;;
73168;SDS011;61379;59.732;30.468;2022-10-31T15:04:20;9.60;;;6.30;;
73168;SDS011;61379;59.732;30.468;2022-10-31T15:06:49;9.73;;;6.07;;